createdAt,value
2018-06-22T04:10:08.649Z,10
2018-06-22T04:10:34.143Z,10
2018-06-22T04:10:59.637Z,5
2018-06-22T04:11:25.101Z,5
2018-06-22T04:11:50.593Z,5
2018-06-22T04:12:16.068Z,5
2018-06-22T04:12:41.563Z,5
2018-06-22T04:13:07.066Z,5
2018-06-22T04:13:32.569Z,5
2018-06-22T04:13:58.028Z,5
2018-06-22T04:14:23.526Z,10
2018-06-22T04:14:49.030Z,10
2018-06-22T04:15:14.506Z,10
2018-06-22T04:15:40.017Z,10
2018-06-22T04:16:05.512Z,10
2018-06-22T04:16:31.018Z,5
2018-06-22T04:16:56.526Z,5
2018-06-22T04:17:22.045Z,5
2018-06-22T04:17:47.544Z,5
2018-06-22T04:18:13.047Z,5
2018-06-22T04:18:38.527Z,10
2018-06-22T04:19:04.026Z,10
2018-06-22T04:19:29.533Z,10
2018-06-22T04:19:55.008Z,10
2018-06-22T04:20:20.481Z,10
2018-06-22T04:20:45.980Z,10
2018-06-22T04:21:11.474Z,10
2018-06-22T04:22:30.398Z,10
2018-06-22T04:22:55.900Z,10
2018-06-22T04:23:21.381Z,10
2018-06-22T04:23:46.893Z,10
2018-06-22T04:24:12.394Z,10
2018-06-22T04:24:37.907Z,10
2018-06-22T04:25:03.455Z,5
2018-06-22T04:25:28.969Z,5
2018-06-22T04:25:54.462Z,5
2018-06-22T04:26:19.963Z,5
2018-06-22T04:26:45.468Z,5
2018-06-22T04:27:10.982Z,5
2018-06-22T04:27:36.485Z,5
2018-06-22T04:28:01.986Z,5
2018-06-22T04:28:27.476Z,5
2018-06-22T04:28:52.965Z,10
2018-06-22T04:29:18.505Z,10
2018-06-22T04:29:43.983Z,10
2018-06-22T04:30:09.464Z,10
2018-06-22T04:30:34.949Z,10
2018-06-22T04:31:00.443Z,10
2018-06-22T04:31:25.954Z,10
2018-06-22T04:31:51.476Z,10
2018-06-22T04:32:16.952Z,10
2018-06-22T04:33:25.695Z,10
2018-06-22T04:33:51.210Z,10
2018-06-22T04:34:16.692Z,10
2018-06-22T04:34:42.192Z,10
2018-06-22T04:35:07.701Z,10
2018-06-22T04:35:33.225Z,15
2018-06-22T04:35:58.699Z,15
2018-06-22T04:36:24.183Z,15
2018-06-22T04:36:49.672Z,15
2018-06-22T04:38:03.433Z,15
2018-06-22T04:38:28.925Z,20
2018-06-22T04:38:54.427Z,20
2018-06-22T04:39:19.966Z,15
2018-06-22T04:39:45.445Z,15
2018-06-22T04:40:10.939Z,15
2018-06-22T04:40:36.432Z,15
2018-06-22T04:41:01.940Z,15
2018-06-22T04:41:27.437Z,15
2018-06-22T04:41:52.933Z,15
2018-06-22T04:42:18.431Z,15
2018-06-22T04:42:43.935Z,15
2018-06-22T04:43:09.450Z,15
2018-06-22T04:43:34.923Z,15
2018-06-22T04:44:00.389Z,15
2018-06-22T04:44:25.873Z,15
2018-06-22T04:44:51.392Z,15
2018-06-22T04:45:16.884Z,15
2018-06-22T04:45:42.378Z,15
2018-06-22T04:46:07.882Z,15
2018-06-22T04:46:33.357Z,15
2018-06-22T04:46:58.845Z,15
2018-06-22T04:47:24.373Z,15
2018-06-22T04:47:49.834Z,15
2018-06-22T04:48:15.332Z,20
2018-06-22T04:48:40.835Z,20
2018-06-22T04:49:06.318Z,20
2018-06-22T04:49:31.817Z,15
2018-06-22T04:49:57.317Z,15
2018-06-22T04:50:22.811Z,15
2018-06-22T04:50:48.301Z,20
2018-06-22T04:51:13.788Z,20
2018-06-22T04:51:39.293Z,20
2018-06-22T04:52:04.789Z,20
2018-06-22T04:52:30.297Z,20
2018-06-22T04:52:55.784Z,20
2018-06-22T04:53:21.317Z,20
2018-06-22T04:53:46.822Z,20
2018-06-22T04:54:12.327Z,25
2018-06-22T04:54:37.818Z,25
2018-06-22T04:55:03.313Z,25
2018-06-22T04:55:28.801Z,25
2018-06-22T04:55:54.317Z,25
2018-06-22T04:56:19.867Z,25
2018-06-22T04:56:45.285Z,20
2018-06-22T04:57:10.801Z,20
2018-06-22T04:57:36.297Z,20
2018-06-22T04:58:01.800Z,25
2018-06-22T04:58:27.298Z,25
2018-06-22T04:58:52.830Z,25
2018-06-22T04:59:18.343Z,25
2018-06-22T04:59:43.815Z,25
2018-06-22T05:00:09.273Z,25
2018-06-22T05:00:34.759Z,30
2018-06-22T05:01:00.265Z,30
2018-06-22T05:01:25.769Z,30
2018-06-22T05:01:51.268Z,30
2018-06-22T05:02:16.753Z,30
2018-06-22T05:02:42.245Z,30
2018-06-22T05:03:07.738Z,30
2018-06-22T05:03:33.246Z,35
2018-06-22T05:03:58.721Z,35
2018-06-22T05:04:24.205Z,40
2018-06-22T05:04:49.755Z,40
2018-06-22T05:05:15.256Z,45
2018-06-22T05:05:40.770Z,45
2018-06-22T05:06:06.254Z,50
2018-06-22T05:06:31.761Z,50
2018-06-22T05:06:57.239Z,50
2018-06-22T05:07:22.728Z,50
2018-06-22T05:08:31.456Z,40
2018-06-22T05:08:56.953Z,35
2018-06-22T05:09:22.514Z,35
2018-06-22T05:09:48.037Z,35
2018-06-22T05:10:13.474Z,35
2018-06-22T05:10:38.976Z,30
2018-06-22T05:11:04.442Z,30
2018-06-22T05:11:29.930Z,25
2018-06-22T05:11:55.382Z,25
2018-06-22T05:12:20.888Z,25
2018-06-22T05:12:46.370Z,30
2018-06-22T05:13:11.860Z,35
2018-06-22T05:13:37.349Z,35
2018-06-22T05:14:02.848Z,40
2018-06-22T05:14:28.323Z,40
2018-06-22T05:14:53.835Z,45
2018-06-22T05:15:19.330Z,45
2018-06-22T05:15:44.875Z,45
2018-06-22T05:16:10.333Z,45
2018-06-22T05:16:35.825Z,45
2018-06-22T05:17:01.307Z,45
2018-06-22T05:17:26.816Z,45
2018-06-22T05:17:52.296Z,50
2018-06-22T05:18:17.782Z,50
2018-06-22T05:18:43.270Z,50
2018-06-22T05:19:08.800Z,55
2018-06-22T05:19:34.277Z,55
2018-06-22T05:19:59.764Z,55
2018-06-22T05:20:25.254Z,55
2018-06-22T05:20:50.739Z,55
2018-06-22T05:21:16.251Z,55
2018-06-22T05:21:41.733Z,55
2018-06-22T05:22:07.236Z,50
2018-06-22T05:22:32.773Z,55
2018-06-22T05:22:58.251Z,75
2018-06-22T05:23:23.721Z,85
2018-06-22T05:23:49.230Z,85
2018-06-22T05:24:14.721Z,85
2018-06-22T05:24:40.250Z,75
2018-06-22T05:25:05.739Z,60
2018-06-22T05:25:31.227Z,60
2018-06-22T05:25:56.722Z,70
2018-06-22T05:26:22.213Z,60
2018-06-22T05:27:51.333Z,50
2018-06-22T05:28:16.848Z,45
2018-06-22T05:28:42.342Z,40
2018-06-22T05:29:07.850Z,40
2018-06-22T05:29:33.337Z,35
2018-06-22T05:29:58.878Z,40
2018-06-22T05:30:24.411Z,45
2018-06-22T05:30:49.880Z,50
2018-06-22T05:31:15.406Z,55
2018-06-22T05:31:40.914Z,55
2018-06-22T05:32:06.410Z,60
2018-06-22T05:32:31.920Z,65
2018-06-22T05:32:57.411Z,55
2018-06-22T05:33:22.952Z,50
2018-06-22T05:33:48.441Z,50
2018-06-22T05:34:13.905Z,50
2018-06-22T05:34:39.425Z,50
2018-06-22T05:35:04.914Z,45
2018-06-22T05:35:30.397Z,45
2018-06-22T05:35:55.970Z,55
2018-06-22T05:36:21.387Z,60
2018-06-22T05:36:46.904Z,60
2018-06-22T05:37:12.391Z,60
2018-06-22T05:37:37.909Z,55
2018-06-22T05:38:03.371Z,50
2018-06-22T05:38:28.859Z,55
2018-06-22T05:38:54.355Z,75
2018-06-22T05:39:19.854Z,85
2018-06-22T05:39:45.348Z,90
2018-06-22T05:40:10.861Z,75
2018-06-22T05:40:36.345Z,75
2018-06-22T05:41:01.854Z,80
2018-06-22T05:41:27.358Z,90
2018-06-22T05:41:52.825Z,95
2018-06-22T05:42:18.340Z,110
2018-06-22T05:42:43.843Z,125
2018-06-22T05:43:09.356Z,140
2018-06-22T05:43:34.851Z,155
2018-06-22T05:44:00.347Z,165
2018-06-22T05:44:25.840Z,175
2018-06-22T05:44:51.340Z,180
2018-06-22T05:45:16.819Z,200
2018-06-22T05:45:42.322Z,220
2018-06-22T05:46:07.790Z,235
2018-06-22T05:46:33.295Z,245
2018-06-22T05:46:58.764Z,240
2018-06-22T05:47:24.239Z,215
2018-06-22T05:47:49.752Z,210
2018-06-22T05:48:15.248Z,205
2018-06-22T05:48:40.711Z,210
2018-06-22T05:49:06.181Z,215
2018-06-22T05:49:31.686Z,230
2018-06-22T05:49:57.160Z,245
2018-06-22T05:50:22.657Z,255
2018-06-22T05:50:48.267Z,265
2018-06-22T05:51:13.634Z,275
2018-06-22T05:51:39.116Z,275
2018-06-22T05:52:04.621Z,240
2018-06-22T05:52:30.102Z,235
2018-06-22T05:52:55.606Z,230
2018-06-22T05:53:21.050Z,235
2018-06-22T05:53:46.569Z,240
2018-06-22T05:54:12.090Z,235
2018-06-22T05:54:37.595Z,215
2018-06-22T05:55:03.050Z,230
2018-06-22T05:55:28.532Z,215
2018-06-22T05:55:54.136Z,210
2018-06-22T05:56:19.633Z,220
2018-06-22T05:56:45.166Z,240
2018-06-22T05:57:10.660Z,250
2018-06-22T05:57:36.157Z,270
2018-06-22T05:58:01.668Z,290
2018-06-22T05:58:27.161Z,305
2018-06-22T05:58:52.670Z,310
2018-06-22T05:59:18.182Z,315
2018-06-22T05:59:43.656Z,280
2018-06-22T06:00:09.124Z,250
2018-06-22T06:00:34.612Z,245
2018-06-22T06:01:00.163Z,250
2018-06-22T06:01:25.711Z,250
2018-06-22T06:01:51.174Z,250
2018-06-22T06:02:16.712Z,245
2018-06-22T06:02:42.223Z,240
2018-06-22T06:03:07.718Z,230
2018-06-22T06:03:33.281Z,210
2018-06-22T06:03:58.707Z,220
2018-06-22T06:05:07.408Z,220
2018-06-22T06:05:32.895Z,220
2018-06-22T06:05:58.370Z,195
2018-06-22T06:06:23.846Z,205
2018-06-22T06:06:49.341Z,205
2018-06-22T06:07:14.808Z,220
2018-06-22T06:07:40.302Z,215
2018-06-22T06:08:05.809Z,225
2018-06-22T06:08:31.312Z,195
2018-06-22T06:08:56.762Z,200
2018-06-22T06:09:22.233Z,225
2018-06-22T06:09:47.770Z,220
2018-06-22T06:10:13.232Z,245
2018-06-22T06:10:38.719Z,260
2018-06-22T06:11:04.231Z,235
2018-06-22T06:11:29.761Z,185
2018-06-22T06:11:55.276Z,215
2018-06-22T06:12:20.756Z,255
2018-06-22T06:12:46.269Z,255
2018-06-22T06:13:11.740Z,245
2018-06-22T06:13:37.228Z,260
2018-06-22T06:14:02.726Z,255
2018-06-22T06:14:28.269Z,260
2018-06-22T06:14:53.754Z,275
2018-06-22T06:15:19.255Z,270
2018-06-22T06:15:44.762Z,235
2018-06-22T06:16:10.246Z,265
2018-06-22T06:16:35.734Z,325
2018-06-22T06:17:01.237Z,320
2018-06-22T06:17:26.692Z,460
2018-06-22T06:17:52.229Z,510
2018-06-22T06:18:17.707Z,305
2018-06-22T06:18:43.193Z,260
2018-06-22T06:19:08.686Z,250
2018-06-22T06:19:34.180Z,250
2018-06-22T06:19:59.704Z,270
2018-06-22T06:20:25.197Z,315
2018-06-22T06:20:50.698Z,265
2018-06-22T06:21:16.182Z,280
2018-06-22T06:21:41.664Z,320
2018-06-22T06:22:07.156Z,310
2018-06-22T06:22:32.656Z,330
2018-06-22T06:22:58.144Z,325
2018-06-22T06:23:23.630Z,320
2018-06-22T06:23:49.118Z,285
2018-06-22T06:24:14.624Z,270
2018-06-22T06:24:40.093Z,275
2018-06-22T06:25:05.604Z,255
2018-06-22T06:25:31.102Z,215
2018-06-22T06:25:56.595Z,200
2018-06-22T06:26:22.080Z,190
2018-06-22T06:26:47.595Z,180
2018-06-22T06:27:13.132Z,180
2018-06-22T06:27:38.620Z,200
2018-06-22T06:28:04.133Z,240
2018-06-22T06:28:29.616Z,260
2018-06-22T06:28:55.126Z,290
2018-06-22T06:29:20.596Z,235
2018-06-22T06:29:46.129Z,210
2018-06-22T06:30:11.621Z,220
2018-06-22T06:30:37.115Z,210
2018-06-22T06:31:02.631Z,215
2018-06-22T06:31:28.082Z,205
2018-06-22T06:31:53.581Z,180
2018-06-22T06:32:19.058Z,185
2018-06-22T06:32:44.550Z,200
2018-06-22T06:33:10.036Z,205
2018-06-22T06:33:35.527Z,215
2018-06-22T06:34:01.018Z,220
2018-06-22T06:34:26.581Z,220
2018-06-22T06:34:52.029Z,205
2018-06-22T06:35:17.508Z,200
2018-06-22T06:35:43.000Z,220
2018-06-22T06:36:08.482Z,230
2018-06-22T06:36:33.979Z,245
2018-06-22T06:36:59.507Z,235
2018-06-22T06:37:25.004Z,205
2018-06-22T06:37:50.497Z,170
2018-06-22T06:38:16.008Z,165
2018-06-22T06:38:41.503Z,190
2018-06-22T06:39:06.985Z,190
2018-06-22T06:39:32.465Z,240
2018-06-22T06:39:57.986Z,290
2018-06-22T06:40:23.483Z,260
2018-06-22T06:40:48.967Z,205
2018-06-22T06:41:14.469Z,175
2018-06-22T06:41:39.961Z,150
2018-06-22T06:42:05.449Z,145
2018-06-22T06:42:30.920Z,160
2018-06-22T06:42:56.439Z,180
2018-06-22T06:43:21.919Z,190
2018-06-22T06:43:47.396Z,190
2018-06-22T06:44:12.898Z,200
2018-06-22T06:44:38.390Z,255
2018-06-22T06:45:03.894Z,265
2018-06-22T06:45:29.395Z,285
2018-06-22T06:45:54.963Z,305
2018-06-22T06:46:20.421Z,260
2018-06-22T06:46:45.912Z,270
2018-06-22T06:47:11.395Z,280
2018-06-22T06:47:36.911Z,255
2018-06-22T06:48:02.446Z,230
2018-06-22T06:48:27.943Z,255
2018-06-22T06:48:53.439Z,230
2018-06-22T06:49:18.932Z,245
2018-06-22T06:49:44.424Z,195
2018-06-22T06:50:09.911Z,190
2018-06-22T06:50:35.419Z,260
2018-06-22T06:51:00.931Z,275
2018-06-22T06:51:26.437Z,245
2018-06-22T06:51:51.925Z,230
2018-06-22T06:52:17.446Z,240
2018-06-22T06:52:42.959Z,255
2018-06-22T06:53:08.469Z,240
2018-06-22T06:53:33.968Z,210
2018-06-22T06:53:59.452Z,195
2018-06-22T06:54:24.951Z,200
2018-06-22T06:54:50.433Z,240
2018-06-22T06:55:15.912Z,315
2018-06-22T06:55:41.410Z,320
2018-06-22T06:56:06.887Z,290
2018-06-22T06:56:32.432Z,250
2018-06-22T06:56:57.899Z,195
2018-06-22T06:57:23.354Z,170
2018-06-22T06:57:48.836Z,225
2018-06-22T06:58:14.318Z,280
2018-06-22T06:58:39.787Z,325
2018-06-22T06:59:05.267Z,380
2018-06-22T06:59:30.748Z,375
2018-06-22T06:59:56.249Z,290
2018-06-22T07:00:21.735Z,220
2018-06-22T07:00:47.249Z,215
2018-06-22T07:01:12.752Z,255
2018-06-22T07:01:38.327Z,320
2018-06-22T07:02:03.813Z,440
2018-06-22T07:02:29.372Z,450
2018-06-22T07:02:54.795Z,490
2018-06-22T07:03:20.280Z,530
2018-06-22T07:03:45.781Z,420
2018-06-22T07:04:11.284Z,460
2018-06-22T07:04:36.754Z,340
2018-06-22T07:05:02.255Z,330
2018-06-22T07:05:27.756Z,440
2018-06-22T07:06:56.873Z,505
2018-06-22T07:07:22.387Z,495
2018-06-22T07:07:47.875Z,380
2018-06-22T07:08:13.366Z,250
2018-06-22T07:08:38.840Z,340
2018-06-22T07:09:04.352Z,560
2018-06-22T07:09:29.832Z,515
2018-06-22T07:09:55.312Z,600
2018-06-22T07:10:20.806Z,455
2018-06-22T07:11:49.919Z,550
2018-06-22T07:12:15.421Z,465
2018-06-22T07:12:40.900Z,250
2018-06-22T07:13:06.422Z,250
2018-06-22T07:13:31.924Z,350
2018-06-22T07:13:57.412Z,425
2018-06-22T07:14:22.948Z,460
2018-06-22T07:14:48.429Z,410
2018-06-22T07:15:13.963Z,340
2018-06-22T07:15:39.451Z,355
2018-06-22T07:16:04.964Z,280
2018-06-22T07:16:30.502Z,340
2018-06-22T07:16:56.008Z,355
2018-06-22T07:17:21.506Z,325
2018-06-22T07:17:46.991Z,360
2018-06-22T07:18:12.491Z,415
2018-06-22T07:18:37.985Z,370
2018-06-22T07:19:03.504Z,325
2018-06-22T07:19:29.003Z,355
2018-06-22T07:19:54.500Z,420
2018-06-22T07:20:19.987Z,470
2018-06-22T07:20:45.499Z,480
2018-06-22T07:21:10.984Z,535
2018-06-22T07:21:36.476Z,610
2018-06-22T07:22:02.017Z,615
2018-06-22T07:22:27.521Z,550
2018-06-22T07:22:52.999Z,435
2018-06-22T07:23:18.499Z,370
2018-06-22T07:23:43.991Z,350
2018-06-22T07:24:09.541Z,365
2018-06-22T07:24:35.026Z,355
2018-06-22T07:25:00.520Z,370
2018-06-22T07:25:26.024Z,370
2018-06-22T07:25:51.542Z,345
2018-06-22T07:26:17.053Z,325
2018-06-22T07:26:42.546Z,305
2018-06-22T07:27:08.086Z,290
2018-06-22T07:27:33.616Z,275
2018-06-22T07:27:59.116Z,220
2018-06-22T07:28:24.625Z,210
2018-06-22T07:28:50.115Z,245
2018-06-22T07:29:15.612Z,255
2018-06-22T07:29:41.128Z,275
2018-06-22T07:30:06.622Z,305
2018-06-22T07:30:32.168Z,325
2018-06-22T07:30:57.604Z,335
2018-06-22T07:31:23.141Z,300
2018-06-22T07:31:48.656Z,300
2018-06-22T07:32:14.149Z,365
2018-06-22T07:32:39.684Z,460
2018-06-22T07:33:05.189Z,490
2018-06-22T07:33:30.696Z,370
2018-06-22T07:33:56.219Z,285
2018-06-22T07:34:21.711Z,390
2018-06-22T07:34:47.237Z,325
2018-06-22T07:35:12.728Z,350
2018-06-22T07:35:38.241Z,370
2018-06-22T07:36:03.746Z,285
2018-06-22T07:36:29.212Z,415
2018-06-22T07:36:54.733Z,410
2018-06-22T07:37:20.240Z,440
2018-06-22T07:37:45.731Z,460
2018-06-22T07:38:11.234Z,470
2018-06-22T07:38:36.726Z,595
2018-06-22T07:39:02.209Z,505
2018-06-22T07:39:27.710Z,680
2018-06-22T07:39:53.233Z,565
2018-06-22T07:40:18.740Z,820
2018-06-22T07:40:44.241Z,345
2018-06-22T07:41:09.783Z,935
2018-06-22T07:41:35.253Z,1010
2018-06-22T07:42:00.779Z,1355
2018-06-22T07:42:26.250Z,1405
2018-06-22T07:42:51.743Z,430
2018-06-22T07:43:17.243Z,725
2018-06-22T07:43:42.761Z,1425
2018-06-22T07:44:08.256Z,1490
2018-06-22T07:44:33.777Z,435
2018-06-22T07:44:59.264Z,1695
2018-06-22T07:45:24.760Z,1755
2018-06-22T07:45:50.262Z,1480
2018-06-22T07:46:15.756Z,1645
2018-06-22T07:46:41.256Z,1520
2018-06-22T07:47:06.736Z,885
2018-06-22T07:47:32.231Z,945
2018-06-22T07:47:57.735Z,420
2018-06-22T07:48:23.242Z,495
2018-06-22T07:48:48.742Z,510
2018-06-22T07:49:14.261Z,545
2018-06-22T07:49:39.753Z,540
2018-06-22T07:50:05.250Z,470
2018-06-22T07:50:30.751Z,455
2018-06-22T07:50:56.242Z,355
2018-06-22T07:51:21.731Z,325
2018-06-22T07:51:47.207Z,295
2018-06-22T07:52:12.728Z,305
2018-06-22T07:52:38.208Z,315
2018-06-22T07:53:03.702Z,265
2018-06-22T07:53:29.223Z,215
2018-06-22T07:53:54.723Z,175
2018-06-22T07:54:20.219Z,190
2018-06-22T07:54:45.719Z,225
2018-06-22T07:55:11.281Z,300
2018-06-22T07:55:36.717Z,340
2018-06-22T07:56:02.208Z,350
2018-06-22T07:56:27.712Z,305
2018-06-22T07:56:53.351Z,295
2018-06-22T07:57:18.938Z,285
2018-06-22T07:57:44.411Z,320
2018-06-22T07:58:09.877Z,330
2018-06-22T07:58:35.380Z,420
2018-06-22T07:59:00.860Z,540
2018-06-22T07:59:26.379Z,1180
2018-06-22T07:59:51.885Z,730
2018-06-22T08:00:17.395Z,810
2018-06-22T08:00:42.901Z,575
2018-06-22T08:01:08.391Z,785
2018-06-22T08:01:33.884Z,415
2018-06-22T08:01:59.404Z,415
2018-06-22T08:02:24.906Z,445
2018-06-22T08:02:50.402Z,655
2018-06-22T08:03:15.895Z,435
2018-06-22T08:03:41.377Z,700
2018-06-22T08:04:06.889Z,425
2018-06-22T08:04:32.377Z,680
2018-06-22T08:04:57.854Z,385
2018-06-22T08:05:23.324Z,345
2018-06-22T08:05:48.849Z,335
2018-06-22T08:06:14.389Z,395
2018-06-22T08:06:39.875Z,1205
2018-06-22T08:07:05.329Z,1130
2018-06-22T08:07:30.857Z,1105
2018-06-22T08:07:56.322Z,1675
2018-06-22T08:08:21.813Z,1280
2018-06-22T08:08:47.306Z,1100
2018-06-22T08:09:12.789Z,1955
2018-06-22T08:09:38.302Z,1960
2018-06-22T08:10:03.814Z,1920
2018-06-22T08:10:29.332Z,1955
2018-06-22T08:10:54.863Z,1990
2018-06-22T08:11:20.292Z,2050
2018-06-22T08:11:45.816Z,2135
2018-06-22T08:12:11.339Z,2240
2018-06-22T08:12:36.813Z,2275
2018-06-22T08:13:02.291Z,360
2018-06-22T08:13:27.783Z,425
2018-06-22T08:13:53.284Z,475
2018-06-22T08:14:18.788Z,480
2018-06-22T08:14:44.278Z,1230
2018-06-22T08:15:09.749Z,685
2018-06-22T08:15:35.244Z,330
2018-06-22T08:16:00.751Z,400
2018-06-22T08:16:26.246Z,695
2018-06-22T08:16:51.739Z,765
2018-06-22T08:17:17.240Z,865
2018-06-22T08:17:42.797Z,805
2018-06-22T08:18:08.240Z,660
2018-06-22T08:18:33.750Z,790
2018-06-22T08:18:59.241Z,730
2018-06-22T08:19:24.738Z,510
2018-06-22T08:19:50.271Z,495
2018-06-22T08:20:15.776Z,470
2018-06-22T08:20:41.320Z,400
2018-06-22T08:21:06.851Z,375
2018-06-22T08:21:32.321Z,350
2018-06-22T08:21:57.821Z,385
2018-06-22T08:22:23.400Z,445
2018-06-22T08:22:48.912Z,480
2018-06-22T08:23:14.370Z,545
2018-06-22T08:23:40.011Z,570
2018-06-22T08:24:05.393Z,640
2018-06-22T08:24:30.897Z,605
2018-06-22T08:24:56.394Z,635
2018-06-22T08:25:21.885Z,590
2018-06-22T08:25:47.383Z,510
2018-06-22T08:26:12.888Z,415
2018-06-22T08:26:38.422Z,350
2018-06-22T08:27:56.859Z,365
2018-06-22T08:28:22.358Z,345
2018-06-22T08:28:47.861Z,335
2018-06-22T08:29:13.362Z,320
2018-06-22T08:29:38.876Z,305
2018-06-22T08:30:04.394Z,255
2018-06-22T08:30:29.886Z,210
2018-06-22T08:30:55.403Z,180
2018-06-22T08:31:20.881Z,155
2018-06-22T08:31:46.388Z,130
2018-06-22T08:32:11.886Z,125
2018-06-22T08:32:37.376Z,120
2018-06-22T08:33:02.837Z,145
2018-06-22T08:33:28.350Z,180
2018-06-22T08:33:53.822Z,225
2018-06-22T08:34:19.311Z,265
2018-06-22T08:34:44.798Z,300
2018-06-22T08:35:10.307Z,310
2018-06-22T08:35:35.794Z,320
2018-06-22T08:36:01.335Z,325
2018-06-22T08:36:26.797Z,335
2018-06-22T08:36:52.273Z,345
2018-06-22T08:37:17.836Z,360
2018-06-22T08:37:43.333Z,375
2018-06-22T08:39:01.805Z,440
2018-06-22T08:39:27.297Z,470
2018-06-22T08:39:52.792Z,515
2018-06-22T08:40:18.267Z,505
2018-06-22T08:40:43.761Z,460
2018-06-22T08:41:09.275Z,460
2018-06-22T08:41:34.835Z,470
2018-06-22T08:42:00.409Z,455
2018-06-22T08:42:25.764Z,400
2018-06-22T08:42:51.260Z,340
2018-06-22T08:43:16.757Z,270
2018-06-22T08:43:42.261Z,215
2018-06-22T08:44:07.750Z,195
2018-06-22T08:44:33.261Z,205
2018-06-22T08:44:58.767Z,230
2018-06-22T08:45:24.344Z,205
2018-06-22T08:45:49.784Z,200
2018-06-22T08:46:15.302Z,215
2018-06-22T08:46:40.801Z,245
2018-06-22T08:47:06.313Z,290
2018-06-22T08:47:31.770Z,335
2018-06-22T08:47:57.298Z,385
2018-06-22T08:48:22.780Z,390
2018-06-22T08:48:48.303Z,410
2018-06-22T08:49:13.765Z,450
2018-06-22T08:49:39.270Z,420
2018-06-22T08:50:04.768Z,375
2018-06-22T08:50:30.268Z,360
2018-06-22T08:50:55.759Z,370
2018-06-22T08:51:21.281Z,380
2018-06-22T08:51:46.784Z,360
2018-06-22T08:52:12.296Z,370
2018-06-22T08:52:37.818Z,380
2018-06-22T08:53:03.317Z,435
2018-06-22T08:53:28.808Z,440
2018-06-22T08:53:54.323Z,510
2018-06-22T08:54:19.818Z,505
2018-06-22T08:54:45.326Z,485
2018-06-22T08:55:10.825Z,440
2018-06-22T08:55:36.353Z,415
2018-06-22T08:56:01.817Z,425
2018-06-22T08:56:27.327Z,355
2018-06-22T08:56:52.817Z,345
2018-06-22T08:57:18.340Z,400
2018-06-22T08:57:43.817Z,495
2018-06-22T08:58:09.302Z,505
2018-06-22T08:59:33.388Z,465
2018-06-22T08:59:58.899Z,490
2018-06-22T09:00:24.402Z,535
2018-06-22T09:00:49.885Z,460
2018-06-22T09:01:15.453Z,425
2018-06-22T09:01:40.881Z,490
2018-06-22T09:02:06.381Z,560
2018-06-22T09:02:31.870Z,595
2018-06-22T09:02:57.356Z,560
2018-06-22T09:03:22.884Z,525
2018-06-22T09:03:48.385Z,550
2018-06-22T09:04:13.899Z,555
2018-06-22T09:04:39.376Z,545
2018-06-22T09:05:04.910Z,505
2018-06-22T09:05:30.393Z,475
2018-06-22T09:05:55.928Z,490
2018-06-22T09:06:21.430Z,515
2018-06-22T09:06:46.904Z,540
2018-06-22T09:07:12.409Z,545
2018-06-22T09:07:37.918Z,540
2018-06-22T09:08:03.444Z,525
2018-06-22T09:08:28.991Z,525
2018-06-22T09:08:54.458Z,525
2018-06-22T09:09:19.939Z,525
2018-06-22T09:09:45.411Z,520
2018-06-22T09:10:10.957Z,535
2018-06-22T09:10:36.421Z,520
2018-06-22T09:11:01.959Z,495
2018-06-22T09:11:27.445Z,445
2018-06-22T09:11:52.964Z,395
2018-06-22T09:12:18.472Z,365
2018-06-22T09:12:43.969Z,365
2018-06-22T09:13:09.458Z,415
2018-06-22T09:13:34.964Z,460
2018-06-22T09:14:00.525Z,470
2018-06-22T09:14:26.065Z,500
2018-06-22T09:14:51.563Z,515
2018-06-22T09:15:17.033Z,535
2018-06-22T09:15:42.530Z,570
2018-06-22T09:16:08.018Z,575
2018-06-22T09:16:33.549Z,570
2018-06-22T09:16:59.056Z,570
2018-06-22T09:17:24.584Z,555
2018-06-22T09:17:50.082Z,535
2018-06-22T09:18:15.574Z,530
2018-06-22T09:18:41.093Z,550
2018-06-22T09:19:06.586Z,535
2018-06-22T09:19:32.092Z,520
2018-06-22T09:19:57.649Z,510
2018-06-22T09:20:23.138Z,515
2018-06-22T09:20:48.597Z,540
2018-06-22T09:21:14.115Z,545
2018-06-22T09:21:39.611Z,525
2018-06-22T09:22:05.119Z,505
2018-06-22T09:22:30.628Z,500
2018-06-22T09:22:56.178Z,520
2018-06-22T09:23:21.666Z,530
2018-06-22T09:23:47.167Z,525
2018-06-22T09:24:12.723Z,510
2018-06-22T09:24:38.209Z,510
2018-06-22T09:25:03.689Z,495
2018-06-22T09:25:29.162Z,485
2018-06-22T09:25:54.658Z,475
2018-06-22T09:26:20.153Z,465
2018-06-22T09:26:45.662Z,475
2018-06-22T09:27:11.136Z,465
2018-06-22T09:27:36.653Z,445
2018-06-22T09:28:02.150Z,405
2018-06-22T09:28:27.671Z,370
2018-06-22T09:28:53.215Z,320
2018-06-22T09:29:18.743Z,260
2018-06-22T09:29:44.242Z,205
2018-06-22T09:30:09.706Z,170
2018-06-22T09:30:35.230Z,155
2018-06-22T09:31:00.738Z,160
2018-06-22T09:31:26.282Z,175
2018-06-22T09:31:51.721Z,190
2018-06-22T09:32:17.218Z,190
2018-06-22T09:32:42.735Z,190
2018-06-22T09:33:08.200Z,200
2018-06-22T09:33:33.734Z,250
2018-06-22T09:33:59.214Z,300
2018-06-22T09:34:24.764Z,360
2018-06-22T09:34:50.245Z,415
2018-06-22T09:35:15.749Z,445
2018-06-22T09:35:41.223Z,435
2018-06-22T09:36:06.733Z,430
2018-06-22T09:36:32.256Z,415
2018-06-22T09:36:57.804Z,415
2018-06-22T09:37:23.285Z,430
2018-06-22T09:37:48.791Z,450
2018-06-22T09:38:14.325Z,470
2018-06-22T09:38:39.821Z,490
2018-06-22T09:39:05.331Z,490
2018-06-22T09:39:30.888Z,485
2018-06-22T09:39:56.412Z,470
2018-06-22T09:40:21.881Z,470
2018-06-22T09:40:47.417Z,460
2018-06-22T09:41:13.146Z,475
2018-06-22T09:41:38.628Z,500
2018-06-22T09:42:04.139Z,515
2018-06-22T09:42:29.652Z,510
2018-06-22T09:42:55.196Z,480
2018-06-22T09:43:20.618Z,465
2018-06-22T09:43:46.103Z,460
2018-06-22T09:44:11.601Z,450
2018-06-22T09:44:37.095Z,440
2018-06-22T09:45:02.623Z,425
2018-06-22T09:45:28.085Z,375
2018-06-22T09:45:53.559Z,315
2018-06-22T09:46:19.053Z,255
2018-06-22T09:46:44.655Z,245
2018-06-22T09:47:10.150Z,235
2018-06-22T09:47:35.626Z,215
2018-06-22T09:48:01.123Z,195
2018-06-22T09:48:26.663Z,190
2018-06-22T09:48:52.115Z,180
2018-06-22T09:49:17.628Z,180
2018-06-22T09:49:43.110Z,185
2018-06-22T09:50:08.643Z,195
2018-06-22T09:50:34.153Z,210
2018-06-22T09:50:59.654Z,205
2018-06-22T09:51:25.134Z,195
2018-06-22T09:51:50.671Z,190
2018-06-22T09:53:04.497Z,150
2018-06-22T09:53:30.016Z,150
2018-06-22T09:53:55.491Z,170
2018-06-22T09:54:20.980Z,185
2018-06-22T09:54:46.481Z,200
2018-06-22T09:55:12.091Z,210
2018-06-22T09:55:37.503Z,220
2018-06-22T09:56:02.986Z,230
2018-06-22T09:56:28.532Z,235
2018-06-22T09:56:53.999Z,230
2018-06-22T09:57:19.615Z,235
2018-06-22T09:57:45.119Z,230
2018-06-22T09:58:10.642Z,245
2018-06-22T09:58:36.226Z,270
2018-06-22T09:59:01.741Z,295
2018-06-22T09:59:27.266Z,335
2018-06-22T09:59:52.738Z,400
2018-06-22T10:00:18.252Z,485
2018-06-22T10:00:43.707Z,560
2018-06-22T10:01:09.224Z,580
2018-06-22T10:01:34.746Z,575
2018-06-22T10:02:00.175Z,555
2018-06-22T10:02:25.701Z,555
2018-06-22T10:02:51.218Z,550
2018-06-22T10:03:16.692Z,540
2018-06-22T10:03:42.175Z,520
2018-06-22T10:04:07.753Z,510
2018-06-22T10:04:33.238Z,495
2018-06-22T10:04:58.765Z,480
2018-06-22T10:05:24.282Z,465
2018-06-22T10:05:49.717Z,455
2018-06-22T10:06:15.130Z,445
2018-06-22T10:06:40.615Z,455
2018-06-22T10:07:06.058Z,470
2018-06-22T10:07:31.539Z,490
2018-06-22T10:07:57.070Z,485
2018-06-22T10:08:22.609Z,465
2018-06-22T10:08:47.958Z,465
2018-06-22T10:09:13.453Z,455
2018-06-22T10:09:38.906Z,440
2018-06-22T10:10:04.405Z,415
2018-06-22T10:10:29.898Z,385
2018-06-22T10:10:55.326Z,345
2018-06-22T10:11:20.899Z,300
2018-06-22T10:11:46.284Z,300
2018-06-22T10:12:11.753Z,320
2018-06-22T10:12:37.259Z,350
2018-06-22T10:13:02.769Z,390
2018-06-22T10:13:28.252Z,435
2018-06-22T10:13:53.750Z,470
2018-06-22T10:14:19.239Z,530
2018-06-22T10:14:44.752Z,545